Time;durP1;ratioP1;P1;durP2;ratioP2;P2;SDS_P1;SDS_P2;PMS_P1;PMS_P2;Temp;Humidity;BMP_temperature;BMP_pressure;BME280_temperature;BME280_humidity;BME280_pressure;Samples;Min_cycle;Max_cycle;Signal;HPM_P1;HPM_P2
2022/11/11 00:02:14;;;;;;;16.53;14.43;;;8.00;99.90;;;;;;5031007;28;20441;-88
2022/11/11 00:04:42;;;;;;;15.97;14.30;;;8.10;99.90;;;;;;5036174;28;20452;-88
2022/11/11 00:07:09;;;;;;;19.97;14.43;;;8.00;99.90;;;;;;5040939;28;20452;-88
2022/11/11 00:09:36;;;;;;;20.30;15.40;;;8.00;99.90;;;;;;5050875;28;20849;-88
2022/11/11 00:12:03;;;;;;;20.60;14.23;;;8.00;99.90;;;;;;5035416;28;20465;-86
2022/11/11 00:14:30;;;;;;;21.47;14.77;;;7.90;99.90;;;;;;5031135;28;20470;-88
2022/11/11 00:25:13;;;;;;;18.30;14.40;;;7.90;99.90;;;;;;5030826;28;20433;-88
2022/11/11 00:27:40;;;;;;;18.30;14.60;;;7.90;99.90;;;;;;5028085;28;20453;-88
2022/11/11 00:30:08;;;;;;;19.90;15.27;;;7.90;99.90;;;;;;5038822;28;20436;-89
2022/11/11 00:32:35;;;;;;;20.03;15.10;;;7.90;99.90;;;;;;5035544;28;20469;-88
2022/11/11 00:37:48;;;;;;;20.40;13.40;;;7.80;99.90;;;;;;5034123;28;20487;-88
2022/11/11 00:40:15;;;;;;;17.60;13.97;;;7.80;99.90;;;;;;5037422;28;20529;-88
2022/11/11 00:42:42;;;;;;;17.27;11.70;;;7.80;99.90;;;;;;5032721;28;20988;-88
2022/11/11 00:45:10;;;;;;;15.00;11.97;;;7.80;99.90;;;;;;5037299;28;20806;-88
2022/11/11 00:53:11;;;;;;;20.47;13.47;;;7.70;99.90;;;;;;5038415;28;20564;-87
2022/11/11 00:55:38;;;;;;;16.07;12.20;;;7.70;99.90;;;;;;5037853;28;20446;-88
2022/11/11 00:58:04;;;;;;;21.13;13.70;;;7.80;99.90;;;;;;5056051;28;20438;-89
2022/11/11 01:00:31;;;;;;;15.80;12.17;;;7.70;99.90;;;;;;5063849;28;20438;-89
2022/11/11 01:02:58;;;;;;;19.53;14.00;;;7.80;99.90;;;;;;5061964;28;20458;-88
2022/11/11 01:05:27;;;;;;;13.87;12.43;;;7.80;99.90;;;;;;5040280;28;20452;-89
2022/11/11 01:07:54;;;;;;;14.20;12.70;;;7.70;99.90;;;;;;5042181;28;20492;-89
2022/11/11 01:13:11;;;;;;;14.80;12.00;;;7.70;99.90;;;;;;5038511;28;20473;-87
2022/11/11 01:15:38;;;;;;;18.63;13.37;;;7.60;99.90;;;;;;5048212;28;20444;-88
2022/11/11 01:18:05;;;;;;;16.00;11.83;;;7.60;99.90;;;;;;5048075;28;20441;-86
2022/11/11 01:20:35;;;;;;;18.67;12.53;;;7.60;99.90;;;;;;5051819;28;20426;-89
2022/11/11 01:23:01;;;;;;;17.93;13.00;;;7.60;99.90;;;;;;5056820;28;20508;-87
2022/11/11 01:25:28;;;;;;;17.17;14.40;;;7.60;99.90;;;;;;5052217;28;20426;-87
2022/11/11 01:27:55;;;;;;;16.70;14.17;;;7.60;99.90;;;;;;5047073;28;20429;-86
2022/11/11 01:30:21;;;;;;;15.63;12.73;;;7.60;99.90;;;;;;5037847;28;20441;-87
2022/11/11 01:32:48;;;;;;;19.30;13.10;;;7.60;99.90;;;;;;5035663;28;20850;-87
2022/11/11 01:35:15;;;;;;;21.10;14.27;;;7.50;99.90;;;;;;5035254;28;20437;-86
2022/11/11 01:37:44;;;;;;;14.73;13.23;;;7.50;99.90;;;;;;5033429;28;20994;-87
2022/11/11 01:40:12;;;;;;;16.27;13.47;;;7.50;99.90;;;;;;5036167;28;20456;-86
2022/11/11 01:42:49;;;;;;;18.60;13.93;;;7.40;99.90;;;;;;5054524;28;20465;-88
2022/11/11 01:45:56;;;;;;;15.20;13.10;;;7.40;99.90;;;;;;5046563;28;20967;-87
2022/11/11 01:51:20;;;;;;;16.77;14.07;;;7.30;99.90;;;;;;5039720;28;20549;-87
2022/11/11 01:53:53;;;;;;;14.10;12.43;;;7.30;99.90;;;;;;5044832;28;20882;-87
2022/11/11 01:56:20;;;;;;;20.60;14.00;;;7.20;99.90;;;;;;5039079;28;20454;-87
2022/11/11 01:58:48;;;;;;;14.10;12.60;;;7.30;99.90;;;;;;5029885;28;20442;-87
2022/11/11 02:01:16;;;;;;;21.57;14.63;;;7.20;99.90;;;;;;5038042;28;20454;-87
2022/11/11 02:05:40;;;;;;;16.23;12.40;;;7.20;99.90;;;;;;5033163;28;20476;-87
2022/11/11 02:06:32;;;;;;;18.33;14.27;;;7.10;99.90;;;;;;5038665;28;20430;-87
2022/11/11 02:09:00;;;;;;;20.27;13.80;;;7.20;99.90;;;;;;5028634;28;20475;-86
2022/11/11 02:16:57;;;;;;;17.80;12.30;;;7.20;99.90;;;;;;5075492;28;20496;-89
2022/11/11 02:19:32;;;;;;;15.70;12.33;;;7.30;99.90;;;;;;5064398;28;20497;-88
2022/11/11 02:22:01;;;;;;;17.47;13.50;;;7.10;99.90;;;;;;5039065;28;20445;-88
2022/11/11 02:24:30;;;;;;;16.40;12.27;;;7.20;99.90;;;;;;5034740;28;20461;-88
2022/11/11 02:26:58;;;;;;;14.23;12.80;;;7.10;99.90;;;;;;5033619;28;20438;-88
2022/11/11 02:29:25;;;;;;;15.80;12.77;;;7.10;99.90;;;;;;5040589;28;21024;-89
2022/11/11 02:31:52;;;;;;;14.70;12.53;;;7.10;99.90;;;;;;5035945;28;20441;-88
2022/11/11 02:34:19;;;;;;;18.83;13.40;;;7.10;99.90;;;;;;5036703;28;20484;-88
2022/11/11 02:36:46;;;;;;;16.80;13.67;;;7.10;99.90;;;;;;5034406;28;20441;-88
2022/11/11 02:39:13;;;;;;;15.30;13.40;;;7.00;99.90;;;;;;5041238;28;20434;-88
2022/11/11 02:41:59;;;;;;;16.90;14.70;;;7.00;99.90;;;;;;5047955;28;20444;-88
2022/11/11 02:44:26;;;;;;;19.27;15.80;;;7.00;99.90;;;;;;5048033;28;20473;-88
2022/11/11 02:46:53;;;;;;;23.57;16.10;;;7.00;99.90;;;;;;5032063;28;20446;-88
2022/11/11 02:49:20;;;;;;;27.33;17.20;;;7.00;99.90;;;;;;5034536;28;20481;-87
2022/11/11 02:51:48;;;;;;;19.73;15.87;;;7.00;99.90;;;;;;5041630;28;20448;-88
2022/11/11 02:54:15;;;;;;;20.47;17.67;;;6.90;99.90;;;;;;5036030;28;20457;-87
2022/11/11 02:59:28;;;;;;;25.13;19.33;;;6.80;99.90;;;;;;5066532;28;20447;-89
2022/11/11 03:01:54;;;;;;;24.83;19.00;;;6.80;99.90;;;;;;5046713;28;20437;-88
2022/11/11 03:04:21;;;;;;;21.20;18.83;;;6.90;99.90;;;;;;5037217;28;20472;-88
2022/11/11 03:06:48;;;;;;;23.87;19.73;;;6.80;99.90;;;;;;5039370;28;20453;-88
2022/11/11 03:09:15;;;;;;;23.10;19.20;;;6.80;99.90;;;;;;5034172;28;20486;-88
2022/11/11 03:11:43;;;;;;;25.03;19.93;;;6.80;99.90;;;;;;5037222;28;20449;-88
2022/11/11 03:14:10;;;;;;;27.30;19.57;;;6.70;99.90;;;;;;5031885;28;20466;-88
2022/11/11 03:19:21;;;;;;;22.77;20.40;;;6.70;99.90;;;;;;5026101;28;20525;-88
2022/11/11 03:21:47;;;;;;;24.00;19.83;;;6.60;99.90;;;;;;5032369;28;20942;-88
2022/11/11 03:24:14;;;;;;;19.90;17.67;;;6.60;99.90;;;;;;5032168;28;20448;-88
2022/11/11 03:26:42;;;;;;;21.60;16.77;;;6.60;99.90;;;;;;5069311;28;20437;-88
2022/11/11 03:29:09;;;;;;;16.77;15.10;;;6.60;99.90;;;;;;5048561;28;20489;-88
2022/11/11 03:31:36;;;;;;;18.97;15.50;;;6.60;99.90;;;;;;5035345;28;20449;-88
2022/11/11 03:39:42;;;;;;;18.87;14.27;;;6.50;99.90;;;;;;5127611;28;20269;-87
2022/11/11 03:42:09;;;;;;;13.93;12.37;;;6.60;99.90;;;;;;5130757;28;20445;-87
2022/11/11 03:44:35;;;;;;;15.70;13.60;;;6.60;99.90;;;;;;5125754;28;20465;-87
2022/11/11 03:47:02;;;;;;;14.90;13.23;;;6.60;99.90;;;;;;5124617;28;20980;-86
2022/11/11 03:49:29;;;;;;;16.57;14.07;;;6.50;99.90;;;;;;5118234;28;20429;-87
2022/11/11 03:51:55;;;;;;;14.37;12.13;;;6.50;99.90;;;;;;5131023;28;20951;-88
2022/11/11 03:54:24;;;;;;;15.70;13.57;;;6.40;99.90;;;;;;5112496;28;20450;-89
2022/11/11 03:56:50;;;;;;;14.87;12.37;;;6.40;99.90;;;;;;5119264;28;20482;-88
2022/11/11 03:59:17;;;;;;;14.90;12.17;;;6.30;99.90;;;;;;5140315;28;20430;-86
2022/11/11 04:10:25;;;;;;;14.53;11.53;;;6.10;99.90;;;;;;5117862;28;20405;-87
2022/11/11 04:21:42;;;;;;;14.47;12.97;;;6.00;99.90;;;;;;5117620;28;20477;-87
2022/11/11 04:23:53;;;;;;;14.50;12.10;;;6.00;99.90;;;;;;5126413;28;20511;-87
2022/11/11 04:26:20;;;;;;;14.80;13.00;;;6.00;99.90;;;;;;5130935;28;20429;-87
2022/11/11 04:31:31;;;;;;;14.10;12.03;;;6.00;99.90;;;;;;5112888;28;20437;-87
2022/11/11 04:33:57;;;;;;;14.13;12.83;;;6.00;99.90;;;;;;5112119;28;20842;-87
2022/11/11 04:36:23;;;;;;;12.83;11.53;;;5.90;99.90;;;;;;5109393;28;20474;-88
2022/11/11 04:41:36;;;;;;;14.30;12.40;;;5.90;99.90;;;;;;5107662;28;20849;-87
2022/11/11 04:46:47;;;;;;;12.87;11.67;;;5.90;99.90;;;;;;5125156;28;20422;-88
2022/11/11 04:49:14;;;;;;;12.40;11.17;;;5.90;99.90;;;;;;5127744;28;20418;-88
2022/11/11 04:54:25;;;;;;;14.37;12.00;;;5.80;99.90;;;;;;5104021;28;20440;-87
2022/11/11 04:56:53;;;;;;;13.63;11.73;;;5.80;99.90;;;;;;5102955;28;20475;-87
2022/11/11 04:59:20;;;;;;;17.73;13.80;;;5.80;99.90;;;;;;5099182;28;20473;-87
2022/11/11 05:04:31;;;;;;;14.07;12.57;;;5.80;99.90;;;;;;5098979;28;20817;-87
2022/11/11 05:09:56;;;;;;;18.47;12.30;;;5.70;99.90;;;;;;5025998;28;20414;-87
2022/11/11 05:12:24;;;;;;;14.03;11.13;;;5.70;99.90;;;;;;5050552;28;20533;-87
2022/11/11 05:23:04;;;;;;;12.47;10.10;;;5.60;99.90;;;;;;5095299;28;21020;-87
2022/11/11 05:25:32;;;;;;;15.70;12.00;;;5.70;99.90;;;;;;5095502;28;20834;-87
2022/11/11 05:28:00;;;;;;;13.57;10.70;;;5.80;99.90;;;;;;5094653;28;20431;-87
2022/11/11 05:30:27;;;;;;;17.67;11.20;;;5.70;99.90;;;;;;5094872;28;20435;-87
2022/11/11 05:32:55;;;;;;;13.40;12.07;;;5.70;99.90;;;;;;5100235;28;20557;-87
2022/11/11 05:35:22;;;;;;;14.33;10.57;;;5.70;99.90;;;;;;5101618;28;20856;-87
2022/11/11 05:38:19;;;;;;;14.00;10.97;;;5.60;99.90;;;;;;5107997;28;20438;-87
2022/11/11 05:40:36;;;;;;;12.50;11.00;;;5.60;99.90;;;;;;5120199;28;20436;-87
2022/11/11 05:43:04;;;;;;;15.17;10.63;;;5.60;99.90;;;;;;5111996;28;20455;-87
2022/11/11 05:45:31;;;;;;;15.43;11.97;;;5.60;99.90;;;;;;5106941;28;20821;-87
2022/11/11 05:48:01;;;;;;;14.90;13.40;;;5.60;99.90;;;;;;5095512;28;20808;-87
2022/11/11 05:50:28;;;;;;;13.70;11.47;;;5.50;99.90;;;;;;5096721;28;20446;-87
2022/11/11 05:52:56;;;;;;;13.20;11.10;;;5.50;99.90;;;;;;5099789;28;20454;-87
2022/11/11 05:55:22;;;;;;;17.77;11.20;;;5.50;99.90;;;;;;5105587;28;21028;-87
2022/11/11 05:57:49;;;;;;;15.83;12.13;;;5.50;99.90;;;;;;5099850;28;20439;-87
2022/11/11 06:00:18;;;;;;;15.67;11.00;;;5.50;99.90;;;;;;5106742;28;20442;-86
2022/11/11 06:02:45;;;;;;;11.97;10.70;;;5.50;99.90;;;;;;5113740;28;20447;-87
2022/11/11 06:05:12;;;;;;;11.60;10.43;;;5.40;99.90;;;;;;5126465;28;20431;-87
2022/11/11 06:07:39;;;;;;;16.33;11.50;;;5.50;99.90;;;;;;5121863;28;20447;-87
2022/11/11 06:13:09;;;;;;;13.70;12.20;;;5.50;99.90;;;;;;5112687;28;20454;-88
2022/11/11 06:15:38;;;;;;;14.67;12.97;;;5.50;99.90;;;;;;5116623;28;20481;-87
2022/11/11 06:18:08;;;;;;;15.70;13.30;;;5.40;99.90;;;;;;5096573;28;20931;-87
2022/11/11 06:20:35;;;;;;;24.23;13.10;;;5.40;99.90;;;;;;5110046;28;20440;-85
2022/11/11 06:23:03;;;;;;;18.23;13.80;;;5.50;99.90;;;;;;5102836;28;20459;-84
2022/11/11 06:28:17;;;;;;;22.90;14.97;;;5.50;99.90;;;;;;5105241;28;20414;-85
2022/11/11 06:30:45;;;;;;;14.10;12.60;;;5.50;99.90;;;;;;5104050;28;20514;-84
2022/11/11 06:33:12;;;;;;;17.03;12.97;;;5.50;99.90;;;;;;5092319;28;20450;-84
2022/11/11 06:35:43;;;;;;;16.13;12.23;;;5.50;99.90;;;;;;5076562;22;20507;-86
2022/11/11 06:38:09;;;;;;;15.90;11.87;;;5.50;99.90;;;;;;5051601;28;20802;-86
2022/11/11 06:40:36;;;;;;;18.87;13.60;;;5.50;99.90;;;;;;5052896;28;20811;-87
2022/11/11 06:43:03;;;;;;;16.30;14.40;;;5.50;99.90;;;;;;5051937;28;20447;-87
2022/11/11 06:45:32;;;;;;;19.60;13.57;;;5.50;99.90;;;;;;5052985;28;20540;-87
2022/11/11 06:48:00;;;;;;;17.77;12.57;;;5.60;99.90;;;;;;5072123;28;20441;-86
2022/11/11 06:50:27;;;;;;;17.50;13.00;;;5.60;99.90;;;;;;5068065;28;20444;-86
2022/11/11 06:52:55;;;;;;;19.07;13.57;;;5.60;99.90;;;;;;5054055;28;20463;-86
2022/11/11 06:55:21;;;;;;;20.60;14.10;;;5.60;99.90;;;;;;5059209;28;20838;-83
2022/11/11 06:57:48;;;;;;;19.17;15.20;;;5.60;99.90;;;;;;5057027;28;20452;-80
2022/11/11 07:00:16;;;;;;;17.17;13.73;;;5.70;99.90;;;;;;5058383;28;20459;-87
2022/11/11 07:02:43;;;;;;;16.90;14.10;;;5.70;99.90;;;;;;5064062;28;20444;-87
2022/11/11 07:05:11;;;;;;;16.40;12.80;;;5.80;99.90;;;;;;5077063;28;20473;-87
2022/11/11 07:07:38;;;;;;;15.10;13.00;;;5.80;99.90;;;;;;5063068;28;20504;-87
2022/11/11 07:10:09;;;;;;;15.00;11.83;;;5.80;99.90;;;;;;5072659;28;20440;-87
2022/11/11 07:12:43;;;;;;;15.27;11.10;;;5.80;99.90;;;;;;5069457;28;20440;-87
2022/11/11 07:15:18;;;;;;;12.23;10.10;;;5.80;99.90;;;;;;5076146;28;20449;-89
2022/11/11 07:17:44;;;;;;;15.17;10.50;;;5.90;99.90;;;;;;5077628;28;20528;-88
2022/11/11 07:20:13;;;;;;;17.20;11.50;;;5.90;99.90;;;;;;5070044;28;20444;-88
2022/11/11 07:22:40;;;;;;;9.90;8.83;;;6.00;99.90;;;;;;5069293;28;20479;-84
2022/11/11 07:25:07;;;;;;;10.87;9.77;;;6.00;99.90;;;;;;5066131;28;20489;-85
2022/11/11 07:27:37;;;;;;;13.00;10.53;;;6.00;99.90;;;;;;5068522;28;20516;-85
2022/11/11 07:30:05;;;;;;;11.63;9.20;;;6.10;99.90;;;;;;5067914;28;20516;-85
2022/11/11 07:32:32;;;;;;;15.90;9.57;;;6.20;99.90;;;;;;5060046;28;20449;-85
2022/11/11 07:34:59;;;;;;;9.30;8.07;;;6.20;99.90;;;;;;5053594;28;20487;-85
2022/11/11 07:37:27;;;;;;;11.77;10.40;;;6.20;99.90;;;;;;5051253;28;20476;-85
2022/11/11 07:39:54;;;;;;;12.40;10.63;;;6.30;99.90;;;;;;5058175;28;20444;-86
2022/11/11 07:42:21;;;;;;;11.00;9.90;;;6.40;99.90;;;;;;5058000;28;20844;-85
2022/11/11 07:44:48;;;;;;;17.80;10.50;;;6.40;99.90;;;;;;5058502;28;20757;-85
2022/11/11 07:47:15;;;;;;;22.10;10.57;;;6.50;99.90;;;;;;5062839;28;20831;-85
2022/11/11 07:49:41;;;;;;;13.53;10.10;;;6.50;99.90;;;;;;5066804;28;20512;-85
2022/11/11 07:52:08;;;;;;;12.53;9.60;;;6.60;99.90;;;;;;5064192;28;20445;-85
2022/11/11 07:54:36;;;;;;;10.10;8.97;;;6.70;99.90;;;;;;5056646;28;20998;-85
2022/11/11 07:57:03;;;;;;;10.43;8.47;;;6.80;99.90;;;;;;5052787;28;21013;-85
2022/11/11 07:59:30;;;;;;;11.30;9.50;;;6.80;99.90;;;;;;5052381;28;20956;-85
2022/11/11 08:01:57;;;;;;;12.30;10.40;;;6.90;99.90;;;;;;5067981;28;20448;-86
2022/11/11 08:04:23;;;;;;;11.60;10.40;;;7.00;99.90;;;;;;5062433;28;20449;-85
2022/11/11 08:06:50;;;;;;;14.00;9.90;;;7.10;99.90;;;;;;5057450;28;20645;-85
2022/11/11 08:09:17;;;;;;;11.83;9.53;;;7.20;99.90;;;;;;5073271;28;20560;-85
2022/11/11 08:14:29;;;;;;;10.30;9.20;;;7.40;99.90;;;;;;5071720;28;20448;-84
2022/11/11 08:16:56;;;;;;;11.00;9.40;;;7.40;99.90;;;;;;5066828;28;20468;-87
2022/11/11 08:19:23;;;;;;;14.07;8.67;;;7.60;99.90;;;;;;5076549;28;20469;-86
2022/11/11 08:21:51;;;;;;;9.40;8.40;;;7.60;99.90;;;;;;5069716;28;20441;-84
2022/11/11 08:24:18;;;;;;;12.13;10.83;;;7.70;99.90;;;;;;5057641;28;20995;-84
2022/11/11 08:26:48;;;;;;;9.57;8.10;;;7.80;99.90;;;;;;5057440;28;20819;-84
2022/11/11 08:29:15;;;;;;;9.93;8.30;;;8.00;99.90;;;;;;5054533;28;20507;-83
2022/11/11 08:31:41;;;;;;;9.93;8.73;;;8.10;99.90;;;;;;5059247;28;20444;-84
2022/11/11 08:34:09;;;;;;;16.30;9.10;;;8.10;99.90;;;;;;5058695;28;21058;-84
2022/11/11 08:36:35;;;;;;;9.83;7.70;;;8.10;99.90;;;;;;5060833;28;20477;-84
2022/11/11 08:39:02;;;;;;;11.17;10.10;;;8.10;99.90;;;;;;5057932;28;20440;-84
2022/11/11 08:41:29;;;;;;;11.10;9.60;;;8.10;99.90;;;;;;5059880;28;20455;-84
2022/11/11 08:43:58;;;;;;;9.10;8.20;;;8.20;99.90;;;;;;5065768;28;20449;-85
2022/11/11 08:46:25;;;;;;;13.90;10.00;;;8.20;99.90;;;;;;5069313;28;20460;-85
2022/11/11 08:48:52;;;;;;;13.97;11.57;;;8.20;99.90;;;;;;5056343;28;20546;-84
2022/11/11 08:51:19;;;;;;;10.60;8.50;;;8.50;99.90;;;;;;5059731;28;20440;-84
2022/11/11 08:53:46;;;;;;;10.13;9.13;;;8.80;99.90;;;;;;5075388;28;20424;-84
2022/11/11 08:56:13;;;;;;;11.83;8.43;;;8.90;99.90;;;;;;5085833;28;20503;-84
2022/11/11 08:58:39;;;;;;;9.77;8.60;;;8.90;99.90;;;;;;5066086;28;20445;-84
2022/11/11 09:01:12;;;;;;;9.33;8.53;;;9.00;99.90;;;;;;5065303;28;20440;-85
2022/11/11 09:03:42;;;;;;;9.77;8.60;;;9.20;99.90;;;;;;5060823;28;20449;-85
2022/11/11 09:06:09;;;;;;;23.13;8.93;;;9.90;99.90;;;;;;5067593;28;20441;-84
2022/11/11 09:08:35;;;;;;;8.33;7.40;;;10.60;99.90;;;;;;5067588;28;20889;-84
2022/11/11 09:11:02;;;;;;;8.93;7.87;;;11.20;99.90;;;;;;5065936;28;20463;-85
2022/11/11 09:13:29;;;;;;;19.90;14.90;;;11.60;99.90;;;;;;5065877;28;20441;-84
2022/11/11 09:15:56;;;;;;;13.90;11.03;;;11.50;99.90;;;;;;5067544;28;20465;-85
2022/11/11 09:18:25;;;;;;;9.03;8.10;;;11.80;99.90;;;;;;5074938;28;20504;-86
2022/11/11 09:20:52;;;;;;;10.63;7.57;;;12.20;99.90;;;;;;5089935;28;20478;-88
2022/11/11 09:23:18;;;;;;;8.63;7.83;;;12.20;99.90;;;;;;5082370;28;20432;-85
2022/11/11 09:25:45;;;;;;;10.80;8.23;;;11.90;99.90;;;;;;5066742;28;20485;-85
2022/11/11 09:28:13;;;;;;;9.63;8.43;;;11.50;99.90;;;;;;5065332;28;20440;-85
2022/11/11 09:30:39;;;;;;;10.10;9.03;;;11.30;99.90;;;;;;5083003;28;20470;-84
2022/11/11 09:33:06;;;;;;;14.27;10.70;;;11.20;99.90;;;;;;5083219;28;20436;-85
2022/11/11 09:35:34;;;;;;;12.90;10.23;;;11.20;99.90;;;;;;5072919;28;20937;-86
2022/11/11 09:38:02;;;;;;;9.63;8.50;;;11.40;99.90;;;;;;5079141;28;20511;-85
2022/11/11 09:40:55;;;;;;;12.13;9.40;;;12.40;99.90;;;;;;5076810;28;20436;-85
2022/11/11 09:43:32;;;;;;;10.97;9.07;;;13.50;99.90;;;;;;5063408;28;20456;-85
2022/11/11 09:46:22;;;;;;;12.63;9.33;;;13.90;99.90;;;;;;5079921;28;20460;-85
2022/11/11 09:49:14;;;;;;;10.60;8.67;;;14.00;99.90;;;;;;5066486;28;20969;-85
2022/11/11 09:51:48;;;;;;;12.43;9.73;;;13.10;99.90;;;;;;5067740;28;20436;-84
2022/11/11 09:54:23;;;;;;;10.27;9.27;;;12.90;99.90;;;;;;5083245;28;20456;-85
2022/11/11 09:56:49;;;;;;;10.47;9.33;;;13.50;99.90;;;;;;5065254;28;20488;-85
2022/11/11 09:59:21;;;;;;;12.90;10.50;;;14.30;99.90;;;;;;5062760;28;20437;-85
2022/11/11 10:01:53;;;;;;;13.53;9.70;;;14.50;99.90;;;;;;5062373;28;20452;-85
2022/11/11 10:04:31;;;;;;;12.23;8.90;;;14.70;99.90;;;;;;5075416;28;20483;-86
2022/11/11 10:07:03;;;;;;;13.30;10.93;;;14.70;99.90;;;;;;5076173;28;20472;-84
2022/11/11 10:09:36;;;;;;;14.40;11.00;;;14.50;99.90;;;;;;5065834;28;20444;-84
2022/11/11 10:12:10;;;;;;;11.77;9.57;;;14.40;99.90;;;;;;5066097;28;20501;-85
2022/11/11 10:14:40;;;;;;;12.57;9.50;;;15.10;99.90;;;;;;5063464;28;20480;-84
2022/11/11 10:17:15;;;;;;;11.03;9.63;;;15.00;99.90;;;;;;5063730;28;20560;-84
2022/11/11 10:19:52;;;;;;;11.13;9.73;;;15.60;99.90;;;;;;5061019;28;20502;-84
2022/11/11 10:22:23;;;;;;;12.10;8.60;;;15.70;99.50;;;;;;5064069;28;20448;-84
2022/11/11 10:25:00;;;;;;;12.07;8.57;;;15.50;99.80;;;;;;5063766;28;20483;-86
2022/11/11 10:27:28;;;;;;;8.80;7.90;;;16.50;99.00;;;;;;5062785;28;20927;-83
2022/11/11 10:29:55;;;;;;;7.57;6.83;;;18.30;97.60;;;;;;5062814;28;20452;-84
2022/11/11 10:32:26;;;;;;;10.03;7.20;;;19.40;94.50;;;;;;5054167;28;20460;-85
2022/11/11 10:34:53;;;;;;;9.20;7.60;;;20.20;91.80;;;;;;5062941;28;20475;-84
2022/11/11 10:37:24;;;;;;;12.60;7.80;;;20.70;90.60;;;;;;5064964;28;20788;-85
2022/11/11 10:40:03;;;;;;;10.23;7.63;;;21.80;86.50;;;;;;5066812;28;20543;-85
2022/11/11 10:42:30;;;;;;;7.77;7.07;;;23.00;81.40;;;;;;5061731;28;20528;-84
2022/11/11 10:45:00;;;;;;;9.27;7.67;;;23.70;76.70;;;;;;5068113;28;20459;-84
2022/11/11 10:47:43;;;;;;;9.07;7.97;;;23.40;73.90;;;;;;5072525;28;20540;-85
2022/11/11 10:50:18;;;;;;;10.77;7.23;;;21.90;77.30;;;;;;5070800;28;20448;-85
2022/11/11 10:52:51;;;;;;;7.33;6.70;;;21.50;79.50;;;;;;5069587;28;20444;-84
2022/11/11 10:55:23;;;;;;;12.43;8.37;;;21.00;80.40;;;;;;5066339;28;20457;-85
2022/11/11 10:57:54;;;;;;;9.97;7.60;;;20.30;82.60;;;;;;5060910;28;20949;-84
2022/11/11 11:00:21;;;;;;;8.73;7.93;;;20.20;83.00;;;;;;5064977;28;20447;-84
2022/11/11 11:02:55;;;;;;;9.27;7.60;;;20.50;83.10;;;;;;5064986;28;20968;-84
2022/11/11 11:05:26;;;;;;;12.23;7.20;;;21.20;83.00;;;;;;5069275;28;20471;-83
2022/11/11 11:07:59;;;;;;;8.23;7.47;;;21.40;80.40;;;;;;5067325;28;20490;-84
2022/11/11 11:10:33;;;;;;;7.70;7.00;;;21.50;80.00;;;;;;5064524;28;20524;-85
2022/11/11 11:13:04;;;;;;;6.93;6.23;;;21.70;79.30;;;;;;5066397;28;20506;-85
2022/11/11 11:15:56;;;;;;;8.23;7.43;;;22.00;78.50;;;;;;5065575;28;20460;-86
2022/11/11 11:18:25;;;;;;;7.50;6.70;;;21.50;78.60;;;;;;5072048;28;20544;-85
2022/11/11 11:20:57;;;;;;;11.93;8.33;;;21.30;80.80;;;;;;5084595;28;20425;-86
2022/11/11 11:23:39;;;;;;;11.80;8.00;;;21.40;80.90;;;;;;5080907;28;20451;-85
2022/11/11 11:26:07;;;;;;;10.13;7.37;;;20.90;80.70;;;;;;5079470;28;20448;-85
2022/11/11 11:28:34;;;;;;;10.17;7.80;;;20.50;82.60;;;;;;5087723;28;20484;-86
2022/11/11 11:31:03;;;;;;;9.00;8.00;;;20.10;83.50;;;;;;5076142;28;20428;-84
2022/11/11 11:33:51;;;;;;;8.37;7.13;;;20.10;84.60;;;;;;5064711;28;20463;-84
2022/11/11 11:36:18;;;;;;;7.60;6.90;;;20.60;83.00;;;;;;5063154;28;20428;-85
2022/11/11 11:38:49;;;;;;;7.80;7.10;;;21.30;83.10;;;;;;5063718;28;20809;-85
2022/11/11 11:41:17;;;;;;;10.37;7.80;;;21.30;80.80;;;;;;5072324;28;20952;-85
2022/11/11 11:43:45;;;;;;;9.03;7.17;;;20.40;83.10;;;;;;5076503;28;20448;-87
2022/11/11 11:46:19;;;;;;;8.37;7.23;;;20.80;84.00;;;;;;5094884;28;20587;-84
2022/11/11 11:49:04;;;;;;;9.30;8.40;;;20.50;83.30;;;;;;5070868;28;20530;-85
2022/11/11 11:51:36;;;;;;;8.00;6.73;;;20.20;84.60;;;;;;5083873;28;20484;-87
2022/11/11 11:54:21;;;;;;;9.57;8.43;;;20.20;86.20;;;;;;5063222;28;20470;-85
2022/11/11 11:56:50;;;;;;;9.30;7.30;;;20.90;84.90;;;;;;5077496;28;20440;-86
2022/11/11 11:59:22;;;;;;;8.60;7.63;;;21.90;83.20;;;;;;5089716;28;20448;-85
2022/11/11 12:02:03;;;;;;;8.33;7.50;;;21.80;80.60;;;;;;5087596;28;20428;-87
2022/11/11 12:04:58;;;;;;;8.47;7.77;;;22.10;79.70;;;;;;5089058;28;20448;-87
2022/11/11 12:07:50;;;;;;;8.30;7.20;;;22.40;79.70;;;;;;5085347;28;20483;-84
2022/11/11 12:10:28;;;;;;;8.83;7.83;;;22.30;78.80;;;;;;5072713;28;20470;-85
2022/11/11 12:13:01;;;;;;;8.60;6.90;;;22.50;78.60;;;;;;5069571;28;20445;-85
2022/11/11 12:15:33;;;;;;;7.83;6.20;;;23.50;77.90;;;;;;5074014;28;20809;-84
2022/11/11 12:18:22;;;;;;;9.40;5.87;;;24.20;74.00;;;;;;5067699;28;20435;-84
2022/11/11 12:20:55;;;;;;;9.50;6.57;;;25.40;73.30;;;;;;5071492;28;20457;-84
2022/11/11 12:23:51;;;;;;;16.03;6.60;;;24.20;72.30;;;;;;5069651;28;20436;-85
2022/11/11 12:26:25;;;;;;;7.87;6.40;;;23.30;75.50;;;;;;5067010;28;20432;-84
2022/11/11 12:29:19;;;;;;;10.10;6.30;;;22.80;76.20;;;;;;5067058;28;20480;-84
2022/11/11 12:32:00;;;;;;;8.50;6.50;;;22.10;77.50;;;;;;5064208;28;20448;-85
2022/11/11 12:34:55;;;;;;;7.60;6.90;;;21.20;81.40;;;;;;5064588;28;20597;-87
2022/11/11 12:37:32;;;;;;;9.23;6.57;;;20.20;84.10;;;;;;5062589;28;20429;-82
2022/11/11 12:40:15;;;;;;;9.73;6.23;;;19.70;86.30;;;;;;5068218;28;20452;-85
2022/11/11 12:42:55;;;;;;;7.80;6.60;;;19.10;88.20;;;;;;5073156;28;20445;-82
2022/11/11 12:45:26;;;;;;;7.73;7.00;;;19.00;89.90;;;;;;5078711;28;20452;-83
2022/11/11 12:48:05;;;;;;;8.80;7.90;;;18.40;90.20;;;;;;5065765;28;20491;-83
2022/11/11 12:50:39;;;;;;;8.40;6.70;;;18.10;91.10;;;;;;5066444;28;20440;-83
2022/11/11 12:53:20;;;;;;;8.07;7.37;;;18.00;91.60;;;;;;5068682;28;20439;-83
2022/11/11 12:55:54;;;;;;;10.43;7.43;;;17.70;91.90;;;;;;5065779;28;20469;-84
2022/11/11 12:58:35;;;;;;;8.00;7.20;;;17.60;92.00;;;;;;5071023;28;20440;-82
2022/11/11 13:01:14;;;;;;;8.50;7.07;;;17.50;92.10;;;;;;5076011;28;20520;-83
2022/11/11 13:04:00;;;;;;;7.80;7.03;;;17.20;92.80;;;;;;5068024;28;20440;-84
2022/11/11 13:06:39;;;;;;;10.00;6.70;;;17.10;92.90;;;;;;5066129;28;20977;-82
2022/11/11 13:09:32;;;;;;;11.27;6.40;;;17.20;93.00;;;;;;5066459;28;20486;-82
2022/11/11 13:12:07;;;;;;;8.87;7.00;;;17.00;93.30;;;;;;5066681;28;20456;-82
2022/11/11 13:14:58;;;;;;;21.03;8.10;;;17.20;93.60;;;;;;5066857;28;20465;-84
2022/11/11 13:17:25;;;;;;;9.83;8.60;;;17.40;93.00;;;;;;5066312;28;20425;-83
2022/11/11 13:19:55;;;;;;;7.87;7.07;;;17.50;92.30;;;;;;5067289;28;20446;-84
2022/11/11 13:22:25;;;;;;;9.00;8.10;;;17.90;92.70;;;;;;5073193;28;20508;-83
2022/11/11 13:24:53;;;;;;;7.40;6.80;;;18.50;92.20;;;;;;5073256;28;20448;-83
2022/11/11 13:27:27;;;;;;;7.97;7.27;;;19.00;91.60;;;;;;5071204;28;20439;-82
2022/11/11 13:30:17;;;;;;;9.27;7.30;;;19.30;90.90;;;;;;5071314;28;20445;-83
2022/11/11 13:32:48;;;;;;;9.27;7.50;;;19.30;90.10;;;;;;5067432;28;21060;-84
2022/11/11 13:35:24;;;;;;;7.20;6.10;;;19.40;90.00;;;;;;5072753;28;20461;-84
2022/11/11 13:37:51;;;;;;;9.73;5.67;;;19.10;90.10;;;;;;5080058;28;20451;-83
2022/11/11 13:40:32;;;;;;;6.90;6.20;;;18.90;90.80;;;;;;5081619;28;20455;-85
2022/11/11 13:43:00;;;;;;;4.93;4.47;;;18.60;90.80;;;;;;5082770;28;20939;-83
2022/11/11 13:45:32;;;;;;;6.90;4.40;;;18.40;91.10;;;;;;5070921;28;20479;-83
2022/11/11 13:47:59;;;;;;;6.63;4.80;;;18.30;91.20;;;;;;5083785;28;20458;-84
2022/11/11 13:50:29;;;;;;;6.40;5.60;;;18.30;91.50;;;;;;5079607;28;20448;-84
2022/11/11 13:53:00;;;;;;;7.27;5.67;;;18.10;91.20;;;;;;5069514;28;20440;-84
2022/11/11 13:55:32;;;;;;;8.40;4.90;;;18.00;91.70;;;;;;5065483;28;20460;-83
2022/11/11 13:58:00;;;;;;;6.17;4.30;;;17.90;91.20;;;;;;5068010;28;20932;-84
2022/11/11 14:00:35;;;;;;;7.50;5.00;;;18.10;91.20;;;;;;5070121;28;20507;-84
2022/11/11 14:03:37;;;;;;;11.67;5.20;;;18.20;90.20;;;;;;5074486;28;20467;-84
2022/11/11 14:06:37;;;;;;;7.00;5.57;;;18.00;90.50;;;;;;5070466;28;20510;-83
2022/11/11 14:09:05;;;;;;;5.80;5.30;;;17.80;90.90;;;;;;5078097;28;20515;-83
2022/11/11 14:11:34;;;;;;;13.90;5.07;;;17.90;90.90;;;;;;5065747;28;20451;-83
2022/11/11 14:14:34;;;;;;;5.83;5.10;;;17.90;90.90;;;;;;5065387;28;20531;-84
2022/11/11 14:17:04;;;;;;;6.70;5.63;;;17.70;91.00;;;;;;5066076;28;20429;-85
2022/11/11 14:19:32;;;;;;;6.93;5.50;;;17.60;91.20;;;;;;5062838;28;20429;-83
2022/11/11 14:22:00;;;;;;;6.77;5.10;;;17.60;91.60;;;;;;5083253;28;20441;-84
2022/11/11 14:24:35;;;;;;;10.50;5.17;;;17.60;91.60;;;;;;5083147;28;20452;-82
2022/11/11 14:27:03;;;;;;;7.50;4.73;;;17.70;91.40;;;;;;5062632;28;20440;-84
2022/11/11 14:29:34;;;;;;;14.50;4.77;;;17.70;91.60;;;;;;5065207;28;21014;-85